Time;durP1;ratioP1;P1;durP2;ratioP2;P2;SDS_P1;SDS_P2;PMS_P1;PMS_P2;Temp;Humidity;BMP_temperature;BMP_pressure;BME280_temperature;BME280_humidity;BME280_pressure;Samples;Min_cycle;Max_cycle;Signal;HPM_P1;HPM_P2
2022/10/12 00:00:04;;;;;;;17.27;14.47;;;;;;;12.95;100.00;154686.06;5060895;28;20821;-86
2022/10/12 00:02:39;;;;;;;18.43;14.87;;;;;;;12.95;100.00;154686.06;5067889;28;20462;-86
2022/10/12 00:05:07;;;;;;;16.03;14.33;;;;;;;12.92;100.00;154678.25;5054154;28;20431;-86
2022/10/12 00:07:33;;;;;;;17.07;14.70;;;;;;;12.90;100.00;154673.09;5067852;28;20447;-86
2022/10/12 00:10:00;;;;;;;17.30;14.30;;;;;;;12.89;100.00;154669.22;5068871;28;20864;-86
2022/10/12 00:12:28;;;;;;;21.70;15.30;;;;;;;12.87;100.00;154665.28;5065167;28;20873;-86
2022/10/12 00:14:55;;;;;;;18.20;15.30;;;;;;;12.84;100.00;154658.81;5069711;28;20845;-86
2022/10/12 00:17:22;;;;;;;20.00;15.40;;;;;;;12.83;100.00;154654.94;5059215;28;20569;-86
2022/10/12 00:19:50;;;;;;;20.83;15.10;;;;;;;12.81;100.00;154651.03;5068777;28;20437;-86
2022/10/12 00:22:16;;;;;;;18.30;15.10;;;;;;;12.78;100.00;154643.28;5066696;28;20451;-86
2022/10/12 00:24:43;;;;;;;19.50;14.93;;;;;;;12.77;100.00;154640.66;5072226;28;20426;-86
2022/10/12 00:27:10;;;;;;;16.73;13.57;;;;;;;12.75;100.00;154634.19;5075798;28;20477;-85
2022/10/12 00:29:38;;;;;;;18.07;13.70;;;;;;;12.71;100.00;154623.78;5110588;28;20591;-86
2022/10/12 00:32:05;;;;;;;17.27;15.00;;;;;;;12.68;100.00;154616.03;5082757;28;20540;-86
2022/10/12 00:34:32;;;;;;;17.17;15.13;;;;;;;12.67;100.00;154613.44;5060257;28;20514;-86
2022/10/12 00:36:59;;;;;;;18.20;15.23;;;;;;;12.59;100.00;154592.69;5056335;28;20507;-86
2022/10/12 00:39:25;;;;;;;24.33;16.63;;;;;;;12.57;100.00;154587.50;5066935;28;20456;-86
2022/10/12 00:41:52;;;;;;;20.33;15.20;;;;;;;12.56;100.00;154584.91;5065943;28;20450;-86
2022/10/12 00:44:42;;;;;;;22.20;17.37;;;;;;;12.55;100.00;154582.34;5053757;28;20442;-86
2022/10/12 00:47:20;;;;;;;17.43;15.00;;;;;;;12.50;100.00;154569.31;5065411;28;20807;-85
2022/10/12 00:49:49;;;;;;;20.90;15.93;;;;;;;12.47;100.00;154562.84;5074008;28;20440;-86
2022/10/12 00:52:17;;;;;;;24.40;16.20;;;;;;;12.46;100.00;154560.28;5071451;28;20453;-86
2022/10/12 00:54:47;;;;;;;19.40;15.70;;;;;;;12.46;100.00;154560.28;5056800;28;20434;-86
2022/10/12 00:57:16;;;;;;;24.10;17.73;;;;;;;12.44;100.00;154555.09;5071713;28;20970;-86
2022/10/12 00:59:48;;;;;;;19.40;15.97;;;;;;;12.45;100.00;154556.34;5074029;28;20835;-86
2022/10/12 01:02:15;;;;;;;16.13;14.37;;;;;;;12.46;100.00;154558.97;5075998;28;20534;-85
2022/10/12 01:04:41;;;;;;;19.33;16.37;;;;;;;12.44;100.00;154555.09;5058695;28;20450;-86
2022/10/12 01:07:08;;;;;;;22.47;16.67;;;;;;;12.46;100.00;154558.97;5071816;28;20454;-86
2022/10/12 01:09:35;;;;;;;19.17;16.40;;;;;;;12.46;100.00;154560.28;5073060;28;20960;-86
2022/10/12 01:12:04;;;;;;;20.70;15.57;;;;;;;12.43;100.00;154552.50;5073504;28;20522;-86
2022/10/12 01:14:31;;;;;;;18.93;15.87;;;;;;;12.37;100.00;154536.91;5062739;28;20473;-86
2022/10/12 01:17:03;;;;;;;24.10;16.53;;;;;;;12.40;100.00;154544.69;5074150;28;20573;-86
2022/10/12 01:19:51;;;;;;;17.63;14.90;;;;;;;12.41;100.00;154547.31;5098914;28;20535;-86
2022/10/12 01:22:20;;;;;;;19.13;15.10;;;;;;;12.40;100.00;154543.41;5106016;28;20446;-86
2022/10/12 01:24:51;;;;;;;19.70;14.87;;;;;;;12.33;100.00;154526.56;5069956;28;20450;-86
2022/10/12 01:27:25;;;;;;;20.10;15.20;;;;;;;12.28;100.00;154512.31;5052300;28;20449;-86
2022/10/12 01:30:07;;;;;;;21.90;15.30;;;;;;;12.26;100.00;154507.13;5053759;28;20476;-86
2022/10/12 01:32:40;;;;;;;16.83;15.00;;;;;;;12.22;100.00;154498.03;5058906;28;20507;-86
2022/10/12 01:35:10;;;;;;;17.63;15.37;;;;;;;12.20;100.00;154494.13;5072585;28;20437;-86
2022/10/12 01:37:44;;;;;;;19.63;15.13;;;;;;;12.18;100.00;154488.94;5054186;28;20471;-86
2022/10/12 01:40:15;;;;;;;19.87;15.33;;;;;;;12.17;100.00;154486.38;5088773;28;20951;-86
2022/10/12 01:42:43;;;;;;;18.53;15.20;;;;;;;12.15;100.00;154481.16;5062146;28;20555;-86
2022/10/12 01:45:13;;;;;;;20.30;15.17;;;;;;;12.11;100.00;154469.50;5071063;28;20454;-86
2022/10/12 01:47:41;;;;;;;21.70;15.53;;;;;;;12.11;100.00;154470.81;5058705;28;21042;-86
2022/10/12 01:50:10;;;;;;;17.87;15.03;;;;;;;12.10;100.00;154468.19;5071578;28;20444;-86
2022/10/12 01:52:39;;;;;;;17.83;14.80;;;;;;;12.11;100.00;154469.50;5064801;28;20502;-86
2022/10/12 01:55:16;;;;;;;20.30;14.73;;;;;;;12.09;100.00;154465.63;5083487;28;20446;-86
2022/10/12 01:57:53;;;;;;;18.93;14.63;;;;;;;12.07;100.00;154460.41;5089164;28;20474;-85
2022/10/12 02:00:22;;;;;;;23.00;16.07;;;;;;;12.02;100.00;154447.44;5070853;28;20457;-86
2022/10/12 02:02:54;;;;;;;20.17;15.50;;;;;;;12.00;100.00;154442.28;5074117;28;20450;-85
2022/10/12 02:05:27;;;;;;;20.27;15.43;;;;;;;11.97;100.00;154434.50;5076540;28;20437;-85
2022/10/12 02:07:57;;;;;;;20.03;14.07;;;;;;;11.94;100.00;154425.47;5106907;28;20426;-84
2022/10/12 02:10:27;;;;;;;18.83;15.50;;;;;;;11.89;100.00;154413.75;5058871;28;20430;-84
2022/10/12 02:12:54;;;;;;;17.80;14.83;;;;;;;11.86;100.00;154404.72;5078138;28;20811;-84
2022/10/12 02:15:25;;;;;;;19.80;15.53;;;;;;;11.80;100.00;154390.44;5082655;28;20427;-85
2022/10/12 02:17:52;;;;;;;20.10;16.20;;;;;;;11.77;100.00;154382.66;5070748;28;20504;-85
2022/10/12 02:20:23;;;;;;;19.27;15.17;;;;;;;11.75;100.00;154377.50;5080429;28;20450;-84
2022/10/12 02:22:50;;;;;;;19.63;14.30;;;;;;;11.72;100.00;154368.41;5056998;28;20442;-85
2022/10/12 02:25:20;;;;;;;18.83;15.00;;;;;;;11.68;100.00;154357.97;5073098;28;20433;-85
2022/10/12 02:27:49;;;;;;;18.37;14.07;;;;;;;11.63;100.00;154346.31;5074205;28;20458;-85
2022/10/12 02:30:16;;;;;;;17.83;14.17;;;;;;;11.59;100.00;154337.28;5075512;28;20454;-85
2022/10/12 02:32:50;;;;;;;19.13;14.40;;;;;;;11.54;100.00;154323.03;5067961;28;20468;-85
2022/10/12 02:35:24;;;;;;;18.40;14.37;;;;;;;11.52;100.00;154319.09;5061863;28;20520;-85
2022/10/12 02:37:53;;;;;;;20.43;16.73;;;;;;;11.48;100.00;154308.75;5091004;28;20456;-85
2022/10/12 02:40:24;;;;;;;18.57;15.17;;;;;;;11.45;100.00;154300.97;5080420;28;20429;-85
2022/10/12 02:42:54;;;;;;;19.90;13.60;;;;;;;11.44;100.00;154298.38;5056047;28;20549;-85
2022/10/12 02:45:24;;;;;;;18.37;13.90;;;;;;;11.41;100.00;154290.59;5065306;28;20497;-85
2022/10/12 02:47:53;;;;;;;21.10;15.37;;;;;;;11.42;100.00;154293.19;5057709;28;20836;-85
2022/10/12 02:50:21;;;;;;;18.20;14.80;;;;;;;11.42;100.00;154291.91;5044092;28;20485;-85
2022/10/12 02:52:49;;;;;;;20.93;14.63;;;;;;;11.40;100.00;154286.72;5071791;28;20449;-85
2022/10/12 02:55:16;;;;;;;17.97;13.20;;;;;;;11.39;100.00;154284.13;5070229;28;20449;-85
2022/10/12 02:57:42;;;;;;;20.70;15.30;;;;;;;11.42;100.00;154291.91;5070831;28;20469;-85
2022/10/12 03:00:10;;;;;;;17.67;14.77;;;;;;;11.41;100.00;154289.34;5071585;28;20426;-85
2022/10/12 03:02:37;;;;;;;21.93;15.67;;;;;;;11.42;100.00;154291.91;5054443;28;20450;-85
2022/10/12 03:05:06;;;;;;;21.13;15.60;;;;;;;11.40;100.00;154288.03;5051751;28;20439;-86
2022/10/12 03:07:32;;;;;;;20.63;15.00;;;;;;;11.38;100.00;154282.84;5068517;28;20445;-85
2022/10/12 03:09:59;;;;;;;23.63;16.27;;;;;;;11.39;100.00;154284.13;5072979;28;20469;-85
2022/10/12 03:12:26;;;;;;;19.77;15.10;;;;;;;11.38;100.00;154282.84;5071382;28;21067;-85
2022/10/12 03:14:53;;;;;;;20.20;15.80;;;;;;;11.39;100.00;154284.13;5071763;28;20865;-85
2022/10/12 03:17:19;;;;;;;23.33;17.30;;;;;;;11.39;100.00;154284.13;5072138;28;20466;-85
2022/10/12 03:19:46;;;;;;;24.50;15.90;;;;;;;11.39;100.00;154284.13;5069245;28;20442;-85
2022/10/12 03:22:14;;;;;;;18.43;15.50;;;;;;;11.39;100.00;154285.41;5065999;28;20446;-85
2022/10/12 03:24:40;;;;;;;18.70;15.30;;;;;;;11.41;100.00;154290.59;5055890;28;20451;-85
2022/10/12 03:27:07;;;;;;;20.03;15.30;;;;;;;11.44;100.00;154297.06;5052348;28;20431;-85
2022/10/12 03:29:34;;;;;;;18.60;15.00;;;;;;;11.46;100.00;154302.28;5059911;28;20447;-85
2022/10/12 03:32:00;;;;;;;19.80;14.90;;;;;;;11.47;100.00;154304.84;5084922;28;20934;-86
2022/10/12 03:34:27;;;;;;;21.23;15.70;;;;;;;11.48;100.00;154308.75;5051954;28;20673;-85
2022/10/12 03:36:54;;;;;;;20.50;16.37;;;;;;;11.51;100.00;154316.53;5050351;28;20490;-85
2022/10/12 03:39:22;;;;;;;23.23;16.83;;;;;;;11.53;100.00;154320.41;5061831;28;20455;-85
2022/10/12 03:41:48;;;;;;;19.07;15.67;;;;;;;11.54;100.00;154324.28;5083064;28;20461;-86
2022/10/12 03:44:15;;;;;;;18.93;15.43;;;;;;;11.56;100.00;154328.19;5072126;28;20427;-86
2022/10/12 03:46:42;;;;;;;18.40;15.90;;;;;;;11.58;100.00;154333.38;5072037;28;20793;-86
2022/10/12 03:49:08;;;;;;;18.87;15.53;;;;;;;11.60;100.00;154338.53;5053076;28;21016;-86
2022/10/12 03:51:35;;;;;;;20.87;16.40;;;;;;;11.64;100.00;154348.94;5051169;28;20430;-86
2022/10/12 03:54:02;;;;;;;22.00;16.87;;;;;;;11.72;100.00;154369.72;5067325;28;20441;-86
2022/10/12 03:56:30;;;;;;;22.73;16.60;;;;;;;11.76;100.00;154380.06;5068737;28;20893;-86
2022/10/12 03:58:56;;;;;;;22.83;16.40;;;;;;;11.77;100.00;154382.66;5077191;28;20678;-86
2022/10/12 04:01:24;;;;;;;22.37;16.43;;;;;;;11.79;100.00;154387.84;5072219;28;20540;-86
2022/10/12 04:03:51;;;;;;;19.70;16.97;;;;;;;11.84;100.00;154400.78;5072215;28;20433;-86
2022/10/12 04:06:17;;;;;;;23.60;17.83;;;;;;;11.88;100.00;154411.19;5068929;28;20571;-85
2022/10/12 04:08:44;;;;;;;20.77;16.43;;;;;;;11.94;100.00;154426.72;5057181;28;20438;-84
2022/10/12 04:11:10;;;;;;;23.80;17.93;;;;;;;11.94;100.00;154425.47;5071024;28;20456;-85
2022/10/12 04:13:39;;;;;;;25.67;16.80;;;;;;;11.91;100.00;154417.66;5070436;28;20434;-85
2022/10/12 04:16:07;;;;;;;22.30;17.60;;;;;;;11.89;100.00;154413.75;5066407;28;20454;-85
2022/10/12 04:18:34;;;;;;;20.83;17.60;;;;;;;11.90;100.00;154415.06;5078524;28;20466;-86
2022/10/12 04:21:01;;;;;;;21.57;17.27;;;;;;;11.91;100.00;154418.97;5072188;28;20998;-86
2022/10/12 04:23:28;;;;;;;21.87;17.57;;;;;;;11.90;100.00;154416.38;5070340;28;20454;-85
2022/10/12 04:25:55;;;;;;;23.40;18.20;;;;;;;11.89;100.00;154413.75;5071365;28;20785;-85
2022/10/12 04:28:21;;;;;;;24.07;17.00;;;;;;;11.92;100.00;154421.53;5070682;28;20445;-85
2022/10/12 04:30:49;;;;;;;22.20;17.60;;;;;;;11.89;100.00;154413.75;5067878;28;20833;-85
2022/10/12 04:33:16;;;;;;;23.20;17.00;;;;;;;11.93;100.00;154424.16;5062421;28;20830;-87
2022/10/12 04:35:43;;;;;;;25.80;18.17;;;;;;;11.96;100.00;154430.63;5069376;28;20469;-85
2022/10/12 04:38:09;;;;;;;26.77;17.77;;;;;;;11.94;100.00;154425.47;5070130;28;20454;-86
2022/10/12 04:40:36;;;;;;;29.70;19.27;;;;;;;11.99;100.00;154439.66;5056015;28;20550;-86
2022/10/12 04:43:02;;;;;;;24.93;18.33;;;;;;;11.98;100.00;154437.09;5065802;28;20449;-86
2022/10/12 04:45:29;;;;;;;28.20;19.00;;;;;;;11.99;100.00;154439.66;5071211;28;20913;-86
2022/10/12 04:47:57;;;;;;;21.83;18.70;;;;;;;11.93;100.00;154424.16;5069538;28;20493;-86
2022/10/12 04:50:24;;;;;;;26.87;22.30;;;;;;;11.94;100.00;154426.72;5057954;28;20517;-86
2022/10/12 04:52:51;;;;;;;24.63;18.67;;;;;;;11.95;100.00;154429.31;5069994;28;20461;-86
2022/10/12 04:55:17;;;;;;;33.00;19.10;;;;;;;11.94;100.00;154426.72;5070364;28;20511;-85
2022/10/12 04:57:44;;;;;;;25.63;19.40;;;;;;;11.94;100.00;154426.72;5072536;28;20565;-85
2022/10/12 05:00:12;;;;;;;25.67;20.07;;;;;;;11.96;100.00;154430.63;5061744;28;20532;-86
2022/10/12 05:02:38;;;;;;;33.27;18.60;;;;;;;11.97;100.00;154433.19;5065171;28;20924;-85
2022/10/12 05:05:07;;;;;;;28.77;20.37;;;;;;;11.97;100.00;154434.50;5049472;28;20457;-86
2022/10/12 05:07:34;;;;;;;30.10;19.77;;;;;;;11.96;100.00;154431.94;5081647;28;20962;-86
2022/10/12 05:10:00;;;;;;;31.57;19.40;;;;;;;11.96;100.00;154430.63;5067755;28;20453;-86
2022/10/12 05:12:27;;;;;;;26.00;17.97;;;;;;;11.98;100.00;154437.09;5070710;28;20821;-86
2022/10/12 05:14:54;;;;;;;33.03;20.37;;;;;;;12.00;100.00;154442.28;5072058;28;20445;-86
2022/10/12 05:17:20;;;;;;;33.67;19.20;;;;;;;12.02;100.00;154446.19;5071195;28;20514;-86
2022/10/12 05:19:47;;;;;;;37.90;21.60;;;;;;;12.01;100.00;154444.91;5062793;28;20629;-86
2022/10/12 05:22:15;;;;;;;28.73;19.40;;;;;;;11.98;100.00;154437.09;5071853;28;20462;-86
2022/10/12 05:24:42;;;;;;;33.90;21.00;;;;;;;11.98;100.00;154435.81;5072921;28;20465;-86
2022/10/12 05:27:08;;;;;;;30.57;20.00;;;;;;;11.99;100.00;154438.41;5071049;28;20450;-86
2022/10/12 05:29:35;;;;;;;36.87;21.87;;;;;;;11.98;100.00;154435.81;5071910;28;20788;-86
2022/10/12 05:32:02;;;;;;;29.73;21.17;;;;;;;11.98;100.00;154437.09;5074669;28;20469;-86
2022/10/12 05:34:28;;;;;;;39.87;23.50;;;;;;;11.97;100.00;154434.50;5072639;28;20529;-86
2022/10/12 05:36:57;;;;;;;41.87;23.40;;;;;;;11.96;100.00;154430.63;5072184;28;20457;-86
2022/10/12 05:39:25;;;;;;;39.70;23.70;;;;;;;11.97;100.00;154434.50;5063566;28;20523;-85
2022/10/12 05:41:53;;;;;;;34.57;21.97;;;;;;;11.97;100.00;154433.19;5071136;28;20460;-86
2022/10/12 05:44:20;;;;;;;41.90;23.47;;;;;;;11.98;100.00;154437.09;5069389;28;20533;-86
2022/10/12 05:46:47;;;;;;;40.63;24.27;;;;;;;11.97;100.00;154433.19;5068799;28;20458;-86
2022/10/12 05:49:13;;;;;;;40.67;25.50;;;;;;;11.97;100.00;154434.50;5063986;28;20482;-75
2022/10/12 05:51:40;;;;;;;37.53;23.13;;;;;;;11.97;100.00;154434.50;5066798;28;20544;-75
2022/10/12 05:54:07;;;;;;;41.40;26.23;;;;;;;11.97;100.00;154434.50;5066766;28;20941;-75
2022/10/12 05:56:35;;;;;;;35.10;24.77;;;;;;;11.97;100.00;154433.19;5067065;28;20450;-75
2022/10/12 05:59:02;;;;;;;37.50;24.60;;;;;;;11.98;100.00;154437.09;5069643;28;20510;-75
2022/10/12 06:01:29;;;;;;;32.17;23.67;;;;;;;11.99;100.00;154439.66;5066836;28;20454;-76
2022/10/12 06:03:56;;;;;;;32.97;22.70;;;;;;;12.01;100.00;154444.91;5067398;28;20453;-76
2022/10/12 06:06:23;;;;;;;32.80;22.00;;;;;;;12.03;100.00;154450.06;5067024;28;20454;-75
2022/10/12 06:08:49;;;;;;;31.80;24.97;;;;;;;12.04;100.00;154452.69;5068470;28;20464;-75
2022/10/12 06:11:16;;;;;;;32.23;23.70;;;;;;;12.06;100.00;154457.84;5054178;28;20458;-75
2022/10/12 06:13:44;;;;;;;29.70;22.47;;;;;;;12.07;100.00;154460.41;5067393;28;20534;-75
2022/10/12 06:16:11;;;;;;;30.27;21.50;;;;;;;12.09;100.00;154465.63;5062694;28;20552;-75
2022/10/12 06:18:38;;;;;;;28.23;20.83;;;;;;;12.11;100.00;154470.81;5059888;28;20466;-75
2022/10/12 06:21:05;;;;;;;28.00;22.30;;;;;;;12.12;100.00;154473.41;5050818;28;20904;-75
2022/10/12 06:23:32;;;;;;;27.43;20.73;;;;;;;12.15;100.00;154481.16;5099948;28;20456;-75
2022/10/12 06:25:59;;;;;;;28.63;21.67;;;;;;;12.18;100.00;154487.63;5050375;28;20472;-75
2022/10/12 06:28:26;;;;;;;26.00;19.03;;;;;;;12.21;100.00;154495.41;5066216;28;20951;-75
2022/10/12 06:30:55;;;;;;;34.27;21.60;;;;;;;12.21;100.00;154496.72;5066435;28;20940;-75
2022/10/12 06:33:22;;;;;;;29.53;21.90;;;;;;;12.23;100.00;154501.91;5065944;28;20547;-75
2022/10/12 06:35:48;;;;;;;29.17;22.47;;;;;;;12.25;100.00;154505.81;5065934;28;20909;-75
2022/10/12 06:38:15;;;;;;;27.77;22.10;;;;;;;12.28;100.00;154512.31;5066839;28;20458;-75
2022/10/12 06:40:42;;;;;;;28.60;20.97;;;;;;;12.29;100.00;154516.16;5061232;28;20968;-76
2022/10/12 06:43:09;;;;;;;30.03;22.17;;;;;;;12.33;100.00;154525.25;5067990;28;20804;-75
2022/10/12 06:45:36;;;;;;;31.10;22.63;;;;;;;12.35;100.00;154531.75;5081889;28;20454;-75
2022/10/12 06:48:05;;;;;;;30.20;22.43;;;;;;;12.38;100.00;154539.53;5069221;28;20478;-76
2022/10/12 06:50:31;;;;;;;30.30;21.77;;;;;;;12.38;100.00;154538.22;5090828;28;20450;-75
2022/10/12 06:52:58;;;;;;;26.77;21.93;;;;;;;12.41;100.00;154546.00;5068245;28;20461;-75
2022/10/12 06:55:25;;;;;;;26.80;20.80;;;;;;;12.42;100.00;154548.56;5067066;28;20675;-75
2022/10/12 06:57:51;;;;;;;28.47;21.20;;;;;;;12.43;100.00;154551.19;5068942;28;20540;-75
2022/10/12 07:00:18;;;;;;;25.87;20.13;;;;;;;12.40;100.00;154544.69;5066471;28;20457;-76
2022/10/12 07:02:45;;;;;;;28.30;21.93;;;;;;;12.43;100.00;154552.50;5067091;28;20595;-76
2022/10/12 07:05:14;;;;;;;26.03;20.77;;;;;;;12.46;100.00;154558.97;5061170;28;20442;-76
2022/10/12 07:07:40;;;;;;;26.70;21.80;;;;;;;12.51;100.00;154571.94;5097911;28;20461;-75
2022/10/12 07:10:08;;;;;;;28.80;22.80;;;;;;;12.55;100.00;154582.34;5066002;28;20509;-75
2022/10/12 07:12:35;;;;;;;31.77;21.70;;;;;;;12.61;100.00;154597.84;5064814;28;20572;-75
2022/10/12 07:15:02;;;;;;;32.90;23.37;;;;;;;12.66;100.00;154610.81;5063604;28;20462;-75
2022/10/12 07:17:29;;;;;;;28.50;22.70;;;;;;;12.70;100.00;154621.22;5073131;28;20445;-75
2022/10/12 07:19:55;;;;;;;37.40;25.03;;;;;;;12.72;100.00;154626.41;5066055;28;20813;-75
2022/10/12 07:22:23;;;;;;;28.87;21.87;;;;;;;12.77;100.00;154640.66;5061117;28;20465;-76
2022/10/12 07:24:50;;;;;;;30.40;22.83;;;;;;;12.82;100.00;154652.31;5081167;28;20453;-75
2022/10/12 07:27:17;;;;;;;26.77;21.67;;;;;;;12.88;100.00;154666.59;5057535;28;20804;-76
2022/10/12 07:29:43;;;;;;;33.00;25.10;;;;;;;12.91;100.00;154674.41;5064844;28;20803;-75
2022/10/12 07:32:10;;;;;;;27.97;21.47;;;;;;;12.94;100.00;154683.50;5066391;28;20473;-76
2022/10/12 07:34:36;;;;;;;28.23;22.00;;;;;;;12.96;100.00;154687.34;5066031;28;20450;-76
2022/10/12 07:37:03;;;;;;;31.17;23.40;;;;;;;13.01;100.00;154701.63;5092406;28;20450;-75
2022/10/12 07:39:31;;;;;;;27.60;22.63;;;;;;;13.05;100.00;154712.00;5064987;28;20593;-75
2022/10/12 07:41:58;;;;;;;34.43;21.80;;;;;;;13.12;100.00;154730.22;5065302;28;20472;-76
2022/10/12 07:44:25;;;;;;;26.93;21.97;;;;;;;13.20;100.00;154751.00;5063976;28;20802;-75
2022/10/12 07:46:52;;;;;;;27.33;20.97;;;;;;;13.26;100.00;154766.53;5054052;28;20449;-76
2022/10/12 07:49:19;;;;;;;28.03;21.17;;;;;;;13.32;100.00;154782.13;5064326;28;20473;-75
2022/10/12 07:51:46;;;;;;;29.47;23.07;;;;;;;13.35;100.00;154788.59;5064365;28;20464;-75
2022/10/12 07:54:13;;;;;;;30.90;23.17;;;;;;;13.37;100.00;154795.09;5063932;28;20458;-75
2022/10/12 07:56:41;;;;;;;27.00;21.50;;;;;;;13.39;100.00;154800.31;5063822;28;20552;-75
2022/10/12 07:59:08;;;;;;;25.73;20.67;;;;;;;13.40;100.00;154802.88;5063699;28;20473;-76
2022/10/12 08:01:34;;;;;;;26.10;19.40;;;;;;;13.48;100.00;154821.03;5066422;28;20468;-75
2022/10/12 08:04:01;;;;;;;32.17;21.30;;;;;;;13.51;100.00;154830.13;5062214;28;20454;-76
2022/10/12 08:06:30;;;;;;;27.90;20.67;;;;;;;13.56;100.00;154841.78;5064608;28;20930;-76
2022/10/12 08:08:58;;;;;;;28.73;20.73;;;;;;;13.61;100.00;154854.81;5065057;28;20434;-76
2022/10/12 08:11:24;;;;;;;30.70;20.17;;;;;;;13.60;100.00;154853.50;5055302;28;20465;-76
2022/10/12 08:13:52;;;;;;;28.43;20.07;;;;;;;13.65;100.00;154866.50;5065841;28;20464;-76
2022/10/12 08:16:21;;;;;;;26.90;21.20;;;;;;;13.71;100.00;154880.78;5064195;28;20518;-76
2022/10/12 08:18:47;;;;;;;29.10;20.33;;;;;;;13.70;100.00;154879.47;5065020;28;20474;-76
2022/10/12 08:21:16;;;;;;;27.20;20.17;;;;;;;13.76;100.00;154893.75;5067053;28;20438;-76
2022/10/12 08:23:45;;;;;;;30.30;20.93;;;;;;;13.80;100.00;154905.41;5066326;28;20501;-76
2022/10/12 08:26:12;;;;;;;25.37;19.90;;;;;;;13.88;100.00;154926.19;5066187;28;20456;-76
2022/10/12 08:28:39;;;;;;;23.70;19.40;;;;;;;13.97;100.00;154949.56;5068199;28;20531;-76
2022/10/12 08:31:09;;;;;;;28.20;20.30;;;;;;;13.99;100.00;154954.75;5065943;28;20818;-76
2022/10/12 08:33:35;;;;;;;25.60;20.23;;;;;;;14.03;100.00;154965.13;5048809;28;20466;-76
2022/10/12 08:36:03;;;;;;;25.97;20.60;;;;;;;14.11;100.00;154983.31;5065638;28;20462;-75
2022/10/12 08:38:30;;;;;;;25.70;20.00;;;;;;;14.10;100.00;154980.72;5066180;28;20456;-74
2022/10/12 08:41:03;;;;;;;24.17;18.00;;;;;;;14.20;100.00;155006.66;5078756;28;20462;-75
2022/10/12 08:43:48;;;;;;;22.00;17.67;;;;;;;14.31;100.00;155035.25;5056625;28;20456;-74
2022/10/12 08:46:19;;;;;;;22.10;18.60;;;;;;;14.28;100.00;155027.44;5064826;28;20445;-75
2022/10/12 08:48:48;;;;;;;23.50;17.70;;;;;;;14.31;100.00;155036.59;5070189;28;20477;-75
2022/10/12 08:51:19;;;;;;;23.80;18.00;;;;;;;14.46;100.00;155075.53;5070308;28;20792;-74
2022/10/12 08:53:50;;;;;;;26.20;20.83;;;;;;;14.39;100.00;155056.06;5071043;28;20449;-75
2022/10/12 08:56:18;;;;;;;27.43;21.77;;;;;;;14.44;100.00;155069.06;5070511;28;20446;-76
2022/10/12 08:58:45;;;;;;;22.43;16.83;;;;;;;14.48;100.00;155079.47;5064459;28;20477;-74
2022/10/12 09:01:19;;;;;;;23.90;18.13;;;;;;;14.52;100.00;155091.16;5100523;28;20454;-76
2022/10/12 09:03:56;;;;;;;24.00;19.17;;;;;;;14.52;100.00;155091.16;5049441;28;20449;-75
2022/10/12 09:06:26;;;;;;;25.67;19.93;;;;;;;14.69;100.00;155132.72;5101551;28;20465;-75
2022/10/12 09:09:01;;;;;;;21.63;16.97;;;;;;;14.85;100.00;155174.28;5066162;28;20441;-75
2022/10/12 09:11:37;;;;;;;23.97;18.50;;;;;;;14.91;100.00;155191.16;5066675;28;20527;-75
2022/10/12 09:14:09;;;;;;;21.30;17.37;;;;;;;14.80;100.00;155162.56;5066710;28;20445;-74
2022/10/12 09:16:41;;;;;;;20.47;16.80;;;;;;;14.77;100.00;155153.50;5066639;28;20454;-75
2022/10/12 09:19:10;;;;;;;20.80;17.13;;;;;;;14.84;100.00;155171.66;5065359;28;20589;-76
2022/10/12 09:21:37;;;;;;;20.30;16.80;;;;;;;14.94;100.00;155197.66;5101345;28;20458;-76
2022/10/12 09:24:04;;;;;;;20.93;16.00;;;;;;;14.93;100.00;155195.06;5069518;28;21198;-76
2022/10/12 09:26:34;;;;;;;21.30;16.00;;;;;;;14.96;100.00;155202.81;5069420;28;20507;-76
2022/10/12 09:29:03;;;;;;;16.77;14.03;;;;;;;15.00;100.00;155214.56;5065759;28;20446;-76
2022/10/12 09:31:49;;;;;;;19.90;15.20;;;;;;;14.90;100.00;155188.56;5077784;28;20480;-76
2022/10/12 09:34:16;;;;;;;18.70;14.10;;;;;;;14.88;100.00;155183.34;5068102;28;20437;-76
2022/10/12 09:36:42;;;;;;;22.20;15.10;;;;;;;14.88;100.00;155182.09;5066611;28;20472;-76
2022/10/12 09:39:13;;;;;;;19.67;14.73;;;;;;;14.83;100.00;155169.06;5052231;28;20477;-76
2022/10/12 09:41:42;;;;;;;24.60;14.07;;;;;;;14.89;100.00;155185.97;5100632;28;20468;-76
2022/10/12 09:44:15;;;;;;;19.57;14.13;;;;;;;14.83;100.00;155169.06;5061082;28;20454;-76
2022/10/12 09:46:48;;;;;;;16.93;14.20;;;;;;;14.85;100.00;155174.28;5066333;28;20453;-76
2022/10/12 09:49:15;;;;;;;20.27;12.77;;;;;;;14.90;100.00;155187.28;5069661;28;20466;-76
2022/10/12 09:51:43;;;;;;;17.50;13.83;;;;;;;14.92;100.00;155192.47;5069381;28;20451;-76
2022/10/12 09:54:17;;;;;;;20.50;14.50;;;;;;;15.05;100.00;155226.22;5063835;28;20519;-75
2022/10/12 09:56:48;;;;;;;17.10;12.40;;;;;;;15.01;100.00;155217.13;5083199;28;20553;-76
2022/10/12 09:59:26;;;;;;;14.43;11.90;;;;;;;14.92;100.00;155192.47;5063616;28;20794;-74
2022/10/12 10:02:06;;;;;;;15.00;11.13;;;;;;;14.91;100.00;155191.16;5068668;28;20438;-75
2022/10/12 10:04:33;;;;;;;13.97;11.20;;;;;;;15.05;100.00;155226.22;5069041;28;20491;-76
2022/10/12 10:07:14;;;;;;;14.13;10.40;;;;;;;15.09;100.00;155236.66;5066043;28;20453;-76
2022/10/12 10:09:40;;;;;;;13.87;9.70;;;;;;;15.05;100.00;155226.22;5049910;28;20446;-76
2022/10/12 10:12:22;;;;;;;14.80;12.10;;;;;;;15.18;100.00;155260.00;5065130;28;20461;-76
2022/10/12 10:14:50;;;;;;;15.57;10.77;;;;;;;15.31;100.00;155292.50;5070013;28;20442;-76
2022/10/12 10:17:26;;;;;;;13.00;10.70;;;;;;;15.19;100.00;155262.63;5066507;28;20442;-76
2022/10/12 10:19:54;;;;;;;14.70;9.90;;;;;;;15.21;100.00;155267.81;5061147;28;20469;-76
2022/10/12 10:22:22;;;;;;;17.40;11.03;;;;;;;15.33;100.00;155298.97;5068074;28;20472;-76
2022/10/12 10:24:51;;;;;;;14.80;10.87;;;;;;;15.28;100.00;155286.00;5084361;28;20454;-76
2022/10/12 10:27:29;;;;;;;13.70;11.00;;;;;;;15.30;100.00;155289.91;5069155;28;20453;-76
2022/10/12 10:30:09;;;;;;;13.93;10.53;;;;;;;15.25;100.00;155279.50;5069250;28;20444;-76
2022/10/12 10:32:48;;;;;;;19.23;10.50;;;;;;;15.26;100.00;155280.81;5063425;28;20456;-76
2022/10/12 10:35:21;;;;;;;13.10;10.10;;;;;;;15.30;100.00;155289.91;5050733;28;20454;-76
2022/10/12 10:37:49;;;;;;;12.83;10.13;;;;;;;15.29;100.00;155288.63;5065736;28;20895;-77
2022/10/12 10:40:18;;;;;;;18.80;10.97;;;;;;;15.40;100.00;155317.22;5066608;28;20513;-76
2022/10/12 10:42:49;;;;;;;13.23;10.43;;;;;;;15.41;100.00;155318.53;5067936;28;20462;-76
2022/10/12 10:45:23;;;;;;;13.50;11.13;;;;;;;15.41;100.00;155318.53;5060472;28;20442;-75
2022/10/12 10:47:55;;;;;;;18.17;14.50;;;;;;;15.52;98.32;155348.44;5068285;28;20477;-75
2022/10/12 10:50:26;;;;;;;16.30;11.73;;;;;;;15.52;99.24;155348.44;5063737;28;20458;-76
2022/10/12 10:52:57;;;;;;;15.73;11.60;;;;;;;15.45;100.00;155330.19;5078130;28;20487;-75
2022/10/12 10:55:27;;;;;;;17.00;12.03;;;;;;;15.43;99.24;155325.00;5075866;28;21184;-76
2022/10/12 10:57:59;;;;;;;13.40;10.87;;;;;;;15.43;99.80;155323.72;5063983;28;20464;-76
2022/10/12 11:00:28;;;;;;;17.37;10.47;;;;;;;15.47;100.00;155334.13;5065848;28;20473;-75
2022/10/12 11:02:57;;;;;;;16.10;10.60;;;;;;;15.49;99.63;155340.63;5066731;28;20485;-75
2022/10/12 11:05:27;;;;;;;13.23;9.77;;;;;;;15.53;99.69;155351.06;5065704;28;20956;-75
2022/10/12 11:07:54;;;;;;;14.43;11.67;;;;;;;15.62;98.60;155373.16;5065643;28;20458;-87